createdAt,value
2023-05-19T04:00:28.831Z,11.17
2023-05-19T04:00:34.469Z,11.17
2023-05-19T04:00:39.979Z,11.17
2023-05-19T04:00:45.164Z,11.20
2023-05-19T04:00:50.392Z,11.19
2023-05-19T04:00:55.608Z,11.20
2023-05-19T04:01:31.618Z,11.14
2023-05-19T04:01:36.842Z,11.14
2023-05-19T04:01:42.076Z,11.16
2023-05-19T04:01:47.271Z,11.13
2023-05-19T04:01:52.566Z,11.11
2023-05-19T04:01:57.928Z,11.14
2023-05-19T04:02:34.157Z,11.13
2023-05-19T04:02:39.377Z,11.11
2023-05-19T04:02:44.740Z,11.09
2023-05-19T04:02:50.081Z,11.10
2023-05-19T04:02:55.373Z,11.07
2023-05-19T04:03:00.763Z,11.10
2023-05-19T04:03:36.916Z,11.09
2023-05-19T04:03:42.200Z,11.09
2023-05-19T04:03:47.438Z,11.11
2023-05-19T04:03:52.612Z,11.11
2023-05-19T04:03:57.852Z,11.11
2023-05-19T04:04:03.071Z,11.13
2023-05-19T04:04:39.162Z,11.13
2023-05-19T04:04:44.407Z,11.14
2023-05-19T04:04:49.742Z,11.14
2023-05-19T04:04:55.098Z,11.11
2023-05-19T04:05:00.397Z,11.13
2023-05-19T04:05:05.604Z,11.13
2023-05-19T04:05:41.576Z,11.14
2023-05-19T04:05:46.770Z,11.14
2023-05-19T04:05:52.042Z,11.14
2023-05-19T04:05:57.235Z,11.14
2023-05-19T04:06:02.446Z,11.16
2023-05-19T04:06:07.632Z,11.16
2023-05-19T04:06:43.800Z,11.17
2023-05-19T04:06:49.019Z,11.14
2023-05-19T04:06:54.224Z,11.14
2023-05-19T04:06:59.427Z,11.16
2023-05-19T04:07:04.661Z,11.14
2023-05-19T04:07:09.859Z,11.14
2023-05-19T04:07:45.866Z,11.16
2023-05-19T04:07:51.083Z,11.19
2023-05-19T04:07:56.281Z,11.16
2023-05-19T04:08:01.485Z,11.16
2023-05-19T04:08:06.682Z,11.17
2023-05-19T04:08:11.890Z,11.19
2023-05-19T04:08:47.875Z,11.19
2023-05-19T04:08:53.074Z,11.21
2023-05-19T04:08:58.285Z,11.24
2023-05-19T04:09:03.491Z,11.21
2023-05-19T04:09:08.708Z,11.24
2023-05-19T04:09:13.918Z,11.21
2023-05-19T04:09:49.950Z,11.24
2023-05-19T04:09:55.143Z,11.24
2023-05-19T04:10:00.366Z,11.21
2023-05-19T04:10:05.574Z,11.27
2023-05-19T04:10:10.786Z,11.24
2023-05-19T04:10:16.008Z,11.25
2023-05-19T04:10:52.003Z,11.24
2023-05-19T04:10:57.192Z,11.28
2023-05-19T04:11:02.407Z,11.25
2023-05-19T04:11:07.596Z,11.27
2023-05-19T04:11:12.818Z,11.25
2023-05-19T04:11:18.029Z,11.27
2023-05-19T04:11:53.976Z,11.27
2023-05-19T04:11:59.185Z,11.27
2023-05-19T04:12:04.392Z,11.27
2023-05-19T04:12:09.604Z,11.27
2023-05-19T04:12:14.835Z,11.27
2023-05-19T04:12:20.066Z,11.27
2023-05-19T04:12:56.077Z,11.20
2023-05-19T04:13:01.270Z,11.17
2023-05-19T04:13:06.466Z,11.17
2023-05-19T04:13:11.697Z,11.14
2023-05-19T04:13:16.899Z,11.16
2023-05-19T04:13:22.100Z,11.13
2023-05-19T04:13:58.106Z,10.99
2023-05-19T04:14:03.320Z,11.01
2023-05-19T04:14:08.528Z,10.98
2023-05-19T04:14:13.736Z,10.98
2023-05-19T04:14:18.947Z,10.98
2023-05-19T04:14:24.170Z,10.98
2023-05-19T04:15:00.240Z,10.95
2023-05-19T04:15:05.461Z,10.95
2023-05-19T04:15:10.688Z,10.95
2023-05-19T04:15:15.887Z,10.95
2023-05-19T04:15:21.106Z,10.95
2023-05-19T04:15:26.306Z,10.95
2023-05-19T04:16:02.304Z,10.98
2023-05-19T04:16:07.535Z,10.99
2023-05-19T04:16:12.799Z,11.01
2023-05-19T04:16:18.107Z,10.99
2023-05-19T04:16:23.406Z,11.02
2023-05-19T04:16:28.882Z,11.01
2023-05-19T04:17:05.099Z,11.07
2023-05-19T04:17:10.322Z,11.09
2023-05-19T04:17:15.531Z,11.07
2023-05-19T04:17:20.732Z,11.07
2023-05-19T04:17:25.970Z,11.09
2023-05-19T04:17:31.197Z,11.10
2023-05-19T04:18:07.185Z,11.13
2023-05-19T04:18:12.488Z,11.14
2023-05-19T04:18:17.662Z,11.16
2023-05-19T04:18:22.861Z,11.14
2023-05-19T04:18:29.204Z,11.17
2023-05-19T04:18:34.651Z,11.17
2023-05-19T04:19:10.796Z,11.20
2023-05-19T04:19:16.026Z,11.20
2023-05-19T04:19:21.619Z,11.21
2023-05-19T04:19:26.947Z,11.24
2023-05-19T04:19:32.226Z,11.21
2023-05-19T04:19:37.446Z,11.21
2023-05-19T04:20:13.480Z,11.24
2023-05-19T04:20:18.705Z,11.21
2023-05-19T04:20:23.896Z,11.24
2023-05-19T04:20:29.131Z,11.21
2023-05-19T04:20:34.536Z,11.24
2023-05-19T04:20:39.875Z,11.21
2023-05-19T04:21:15.918Z,11.17
2023-05-19T04:21:21.114Z,11.17
2023-05-19T04:21:26.311Z,11.16
2023-05-19T04:21:31.518Z,11.16
2023-05-19T04:21:36.739Z,11.17
2023-05-19T04:21:41.955Z,11.17
2023-05-19T04:22:18.062Z,11.16
2023-05-19T04:22:23.265Z,11.16
2023-05-19T04:22:28.479Z,11.17
2023-05-19T04:22:33.697Z,11.16
2023-05-19T04:22:38.911Z,11.16
2023-05-19T04:22:44.127Z,11.17
2023-05-19T04:23:20.132Z,11.20
2023-05-19T04:23:25.334Z,11.20
2023-05-19T04:23:30.520Z,11.20
2023-05-19T04:23:35.731Z,11.21
2023-05-19T04:23:40.912Z,11.21
2023-05-19T04:23:46.101Z,11.24
2023-05-19T04:24:22.185Z,11.27
2023-05-19T04:24:27.377Z,11.27
2023-05-19T04:24:32.563Z,11.28
2023-05-19T04:24:37.772Z,11.28
2023-05-19T04:24:42.987Z,11.27
2023-05-19T04:24:48.182Z,11.28
2023-05-19T04:25:24.185Z,11.28
2023-05-19T04:25:29.405Z,11.27
2023-05-19T04:25:34.598Z,11.25
2023-05-19T04:25:39.795Z,11.27
2023-05-19T04:25:44.989Z,11.27
2023-05-19T04:25:50.190Z,11.25
2023-05-19T04:26:26.237Z,11.27
2023-05-19T04:26:31.445Z,11.27
2023-05-19T04:26:36.655Z,11.28
2023-05-19T04:26:42.602Z,11.28
2023-05-19T04:26:47.802Z,11.28
2023-05-19T04:26:52.998Z,11.28
2023-05-19T04:27:29.069Z,11.28
2023-05-19T04:27:34.233Z,11.29
2023-05-19T04:27:39.446Z,11.29
2023-05-19T04:27:44.668Z,11.28
2023-05-19T04:27:49.876Z,11.29
2023-05-19T04:27:55.175Z,11.29
2023-05-19T04:28:31.262Z,11.31
2023-05-19T04:28:36.461Z,11.31
2023-05-19T04:28:41.660Z,11.31
2023-05-19T04:28:46.872Z,11.31
2023-05-19T04:28:52.073Z,11.32
2023-05-19T04:28:57.278Z,11.32
2023-05-19T04:29:33.361Z,11.27
2023-05-19T04:29:38.577Z,11.25
2023-05-19T04:29:43.801Z,11.27
2023-05-19T04:29:49.021Z,11.27
2023-05-19T04:29:54.215Z,11.27
2023-05-19T04:29:59.425Z,11.27
2023-05-19T04:30:35.524Z,11.21
2023-05-19T04:30:40.729Z,11.21
2023-05-19T04:30:45.951Z,11.24
2023-05-19T04:30:51.192Z,11.24
2023-05-19T04:30:56.381Z,11.25
2023-05-19T04:31:01.577Z,11.25
2023-05-19T04:31:37.739Z,11.27
2023-05-19T04:31:43.056Z,11.28
2023-05-19T04:31:48.262Z,11.28
2023-05-19T04:31:53.466Z,11.27
2023-05-19T04:31:58.675Z,11.28
2023-05-19T04:32:03.882Z,11.29
2023-05-19T04:32:39.987Z,11.27
2023-05-19T04:32:45.278Z,11.24
2023-05-19T04:32:50.473Z,11.21
2023-05-19T04:32:55.692Z,11.21
2023-05-19T04:33:00.927Z,11.21
2023-05-19T04:33:06.201Z,11.21
2023-05-19T04:33:42.260Z,11.21
2023-05-19T04:33:47.465Z,11.25
2023-05-19T04:33:52.660Z,11.27
2023-05-19T04:33:57.860Z,11.25
2023-05-19T04:34:03.084Z,11.27
2023-05-19T04:34:08.266Z,11.27
2023-05-19T04:34:44.245Z,11.24
2023-05-19T04:34:49.447Z,11.24
2023-05-19T04:34:54.658Z,11.21
2023-05-19T04:34:59.869Z,11.24
2023-05-19T04:35:05.074Z,11.25
2023-05-19T04:35:10.396Z,11.25
2023-05-19T04:35:46.375Z,11.27
2023-05-19T04:35:51.587Z,11.28
2023-05-19T04:35:56.777Z,11.27
2023-05-19T04:36:01.994Z,11.25
2023-05-19T04:36:07.216Z,11.21
2023-05-19T04:36:12.433Z,11.21
2023-05-19T04:36:49.902Z,11.17
2023-05-19T04:36:56.868Z,11.16
2023-05-19T04:37:02.065Z,11.16
2023-05-19T04:37:07.287Z,11.17
2023-05-19T04:37:12.505Z,11.16
2023-05-19T04:37:17.688Z,11.16
2023-05-19T04:37:48.600Z,11.20
2023-05-19T04:37:58.923Z,11.24
2023-05-19T04:38:04.141Z,11.24
2023-05-19T04:38:09.334Z,11.24
2023-05-19T04:38:14.548Z,11.25
2023-05-19T04:38:19.753Z,11.27
2023-05-19T04:38:50.612Z,11.29
2023-05-19T04:39:00.962Z,11.31
2023-05-19T04:39:06.180Z,11.31
2023-05-19T04:39:11.395Z,11.32
2023-05-19T04:39:16.587Z,11.31
2023-05-19T04:39:21.769Z,11.34
2023-05-19T04:39:52.707Z,11.31
2023-05-19T04:40:03.064Z,11.32
2023-05-19T04:40:08.251Z,11.32
2023-05-19T04:40:13.464Z,11.31
2023-05-19T04:40:18.650Z,11.32
2023-05-19T04:40:23.898Z,11.34
2023-05-19T04:40:54.715Z,11.35
2023-05-19T04:41:05.059Z,11.38
2023-05-19T04:41:10.276Z,11.38
2023-05-19T04:41:15.466Z,11.38
2023-05-19T04:41:20.683Z,11.39
2023-05-19T04:41:25.909Z,11.38
2023-05-19T04:41:56.874Z,11.39
2023-05-19T04:42:07.296Z,11.38
2023-05-19T04:42:12.500Z,11.39
2023-05-19T04:42:17.717Z,11.38
2023-05-19T04:42:22.969Z,11.39
2023-05-19T04:42:28.174Z,11.41
2023-05-19T04:42:59.081Z,11.44
2023-05-19T04:43:09.417Z,11.44
2023-05-19T04:43:14.622Z,11.46
2023-05-19T04:43:19.802Z,11.44
2023-05-19T04:43:25.001Z,11.46
2023-05-19T04:43:30.208Z,11.47
2023-05-19T04:44:01.241Z,11.53
2023-05-19T04:44:11.581Z,11.50
2023-05-19T04:44:16.772Z,11.52
2023-05-19T04:44:21.976Z,11.53
2023-05-19T04:44:27.198Z,11.52
2023-05-19T04:44:32.379Z,11.52
2023-05-19T04:45:03.259Z,11.53
2023-05-19T04:45:13.597Z,11.53
2023-05-19T04:45:18.814Z,11.54
2023-05-19T04:45:23.999Z,11.54
2023-05-19T04:45:29.217Z,11.56
2023-05-19T04:45:34.427Z,11.54
2023-05-19T04:46:05.332Z,11.57
2023-05-19T04:46:15.705Z,11.59
2023-05-19T04:46:20.891Z,11.59
2023-05-19T04:46:26.148Z,11.59
2023-05-19T04:46:31.372Z,11.59
2023-05-19T04:46:36.594Z,11.59
2023-05-19T04:47:07.616Z,11.62
2023-05-19T04:47:17.982Z,11.64
2023-05-19T04:47:23.206Z,11.62
2023-05-19T04:47:28.444Z,11.61
2023-05-19T04:47:33.667Z,11.62
2023-05-19T04:47:38.907Z,11.64
2023-05-19T04:48:09.824Z,11.62
2023-05-19T04:48:20.171Z,11.64
2023-05-19T04:48:25.355Z,11.65
2023-05-19T04:48:30.562Z,11.64
2023-05-19T04:48:35.775Z,11.65
2023-05-19T04:48:40.968Z,11.64
2023-05-19T04:49:11.907Z,11.64
2023-05-19T04:49:22.225Z,11.62
2023-05-19T04:49:27.441Z,11.61
2023-05-19T04:49:32.645Z,11.62
2023-05-19T04:49:37.855Z,11.61
2023-05-19T04:49:43.098Z,11.61
2023-05-19T04:50:13.923Z,11.61
2023-05-19T04:50:24.249Z,11.64
2023-05-19T04:50:29.526Z,11.61
2023-05-19T04:50:35.004Z,11.61
2023-05-19T04:50:40.307Z,11.61
2023-05-19T04:50:45.508Z,11.62
2023-05-19T04:51:16.515Z,11.65
2023-05-19T04:51:26.876Z,11.64
2023-05-19T04:51:32.085Z,11.65
2023-05-19T04:51:37.292Z,11.67
2023-05-19T04:51:42.497Z,11.65
2023-05-19T04:51:47.707Z,11.67
2023-05-19T04:52:18.577Z,11.64
2023-05-19T04:52:28.912Z,11.61
2023-05-19T04:52:34.127Z,11.61
2023-05-19T04:52:39.309Z,11.61
2023-05-19T04:52:44.514Z,11.61
2023-05-19T04:52:49.725Z,11.61
2023-05-19T04:53:20.567Z,11.62
2023-05-19T04:53:30.924Z,11.64
2023-05-19T04:53:36.149Z,11.65
2023-05-19T04:53:41.365Z,11.65
2023-05-19T04:53:46.542Z,11.67
2023-05-19T04:53:51.734Z,11.65
2023-05-19T04:54:22.611Z,11.71
2023-05-19T04:54:32.969Z,11.71
2023-05-19T04:54:38.187Z,11.72
2023-05-19T04:54:43.393Z,11.71
2023-05-19T04:54:48.600Z,11.71
2023-05-19T04:54:53.798Z,11.71
2023-05-19T04:55:24.729Z,11.71
2023-05-19T04:55:35.045Z,11.71
2023-05-19T04:55:40.261Z,11.71
2023-05-19T04:55:45.453Z,11.68
2023-05-19T04:55:50.629Z,11.65
2023-05-19T04:55:55.811Z,11.67
2023-05-19T04:56:26.718Z,11.56
2023-05-19T04:56:37.065Z,11.52
2023-05-19T04:56:42.261Z,11.52
2023-05-19T04:56:47.483Z,11.49
2023-05-19T04:56:52.711Z,11.50
2023-05-19T04:56:57.917Z,11.49
2023-05-19T04:57:28.830Z,11.46
2023-05-19T04:57:39.199Z,11.46
2023-05-19T04:57:44.407Z,11.47
2023-05-19T04:57:49.585Z,11.47
2023-05-19T04:57:54.789Z,11.49
2023-05-19T04:57:59.993Z,11.49
2023-05-19T04:58:30.860Z,11.54
2023-05-19T04:58:41.960Z,11.54
2023-05-19T04:58:47.219Z,11.54
2023-05-19T04:58:52.419Z,11.56
2023-05-19T04:58:57.630Z,11.57
2023-05-19T04:59:02.831Z,11.57
2023-05-19T04:59:33.684Z,11.61
2023-05-19T04:59:44.053Z,11.62
2023-05-19T04:59:49.239Z,11.62
2023-05-19T04:59:54.441Z,11.64
2023-05-19T04:59:59.644Z,11.62
2023-05-19T05:00:04.900Z,11.64
2023-05-19T05:00:35.887Z,11.65
2023-05-19T05:00:46.294Z,11.61
2023-05-19T05:00:51.491Z,11.62
2023-05-19T05:00:56.874Z,11.62
2023-05-19T05:01:02.119Z,11.61
2023-05-19T05:01:07.330Z,11.61
2023-05-19T05:01:38.335Z,11.56
2023-05-19T05:01:48.703Z,11.54
2023-05-19T05:01:53.921Z,11.56
2023-05-19T05:01:59.198Z,11.57
2023-05-19T05:02:04.405Z,11.54
2023-05-19T05:02:09.655Z,11.56
2023-05-19T05:02:40.532Z,11.57
2023-05-19T05:02:50.962Z,11.56
2023-05-19T05:02:56.345Z,11.57
2023-05-19T05:03:01.685Z,11.57
2023-05-19T05:03:07.032Z,11.57
2023-05-19T05:03:12.414Z,11.57
2023-05-19T05:03:43.386Z,11.62
2023-05-19T05:03:53.882Z,11.62
2023-05-19T05:03:59.310Z,11.64
2023-05-19T05:04:04.745Z,11.65
2023-05-19T05:04:09.984Z,11.67
2023-05-19T05:04:15.270Z,11.65
2023-05-19T05:04:46.107Z,11.70
2023-05-19T05:04:56.437Z,11.68
2023-05-19T05:05:01.686Z,11.68
2023-05-19T05:05:06.907Z,11.70
2023-05-19T05:05:12.137Z,11.68
2023-05-19T05:05:17.373Z,11.68
2023-05-19T05:05:48.197Z,11.72
2023-05-19T05:05:58.571Z,11.71
2023-05-19T05:06:03.769Z,11.71
2023-05-19T05:06:08.972Z,11.72
2023-05-19T05:06:14.199Z,11.71
2023-05-19T05:06:19.408Z,11.71
2023-05-19T05:06:50.347Z,11.68
2023-05-19T05:07:00.700Z,11.65
2023-05-19T05:07:05.905Z,11.61
2023-05-19T05:07:11.138Z,11.59
2023-05-19T05:07:16.346Z,11.57
2023-05-19T05:07:21.547Z,11.56
2023-05-19T05:07:52.426Z,11.56
2023-05-19T05:08:02.778Z,11.57
2023-05-19T05:08:08.004Z,11.57
2023-05-19T05:08:13.230Z,11.56
2023-05-19T05:08:18.436Z,11.59
2023-05-19T05:08:23.648Z,11.57
2023-05-19T05:08:54.522Z,11.61
2023-05-19T05:09:04.990Z,11.62
2023-05-19T05:09:10.164Z,11.62
2023-05-19T05:09:15.367Z,11.62
2023-05-19T05:09:20.584Z,11.65
2023-05-19T05:09:25.778Z,11.64
2023-05-19T05:09:56.632Z,11.62
2023-05-19T05:10:06.991Z,11.65
2023-05-19T05:10:12.218Z,11.64
2023-05-19T05:10:17.418Z,11.64
2023-05-19T05:10:22.622Z,11.64
2023-05-19T05:10:27.838Z,11.65
2023-05-19T05:10:58.701Z,11.70
2023-05-19T05:11:09.058Z,11.71
2023-05-19T05:11:14.237Z,11.71
2023-05-19T05:11:19.447Z,11.70
2023-05-19T05:11:24.775Z,11.71
2023-05-19T05:11:29.995Z,11.71
2023-05-19T05:12:00.929Z,11.75
2023-05-19T05:12:11.238Z,11.75
2023-05-19T05:12:16.445Z,11.74
2023-05-19T05:12:21.686Z,11.74
2023-05-19T05:12:26.877Z,11.72
2023-05-19T05:12:32.091Z,11.70
2023-05-19T05:13:03.036Z,11.68
2023-05-19T05:13:13.350Z,11.70
2023-05-19T05:13:18.551Z,11.71
2023-05-19T05:13:23.757Z,11.71
2023-05-19T05:13:28.953Z,11.72
2023-05-19T05:13:34.155Z,11.72
2023-05-19T05:14:05.126Z,11.77
2023-05-19T05:14:15.492Z,11.82
2023-05-19T05:14:20.678Z,11.77
2023-05-19T05:14:25.869Z,11.78
2023-05-19T05:14:31.071Z,11.77
2023-05-19T05:14:36.281Z,11.77
2023-05-19T05:15:07.142Z,11.70
2023-05-19T05:15:17.459Z,11.68
2023-05-19T05:15:22.637Z,11.68
2023-05-19T05:15:27.834Z,11.70
2023-05-19T05:15:33.017Z,11.68
2023-05-19T05:15:38.241Z,11.68
2023-05-19T05:16:09.170Z,11.61
2023-05-19T05:16:19.522Z,11.65
2023-05-19T05:16:24.737Z,11.62
2023-05-19T05:16:29.975Z,11.62
2023-05-19T05:16:35.320Z,11.64
2023-05-19T05:16:40.519Z,11.65
2023-05-19T05:17:11.420Z,11.71
2023-05-19T05:17:21.759Z,11.72
2023-05-19T05:17:26.973Z,11.74
2023-05-19T05:17:32.188Z,11.74
2023-05-19T05:17:37.391Z,11.75
2023-05-19T05:17:42.612Z,11.77
2023-05-19T05:18:13.467Z,11.80
2023-05-19T05:18:23.819Z,11.82
2023-05-19T05:18:29.025Z,11.85
2023-05-19T05:18:34.243Z,11.85
2023-05-19T05:18:39.676Z,11.87
2023-05-19T05:18:45.601Z,11.89
2023-05-19T05:19:16.481Z,11.99
2023-05-19T05:19:26.873Z,12.01
2023-05-19T05:19:32.116Z,12.02
2023-05-19T05:19:37.308Z,12.02
2023-05-19T05:19:42.515Z,12.02
2023-05-19T05:19:47.733Z,12.04
2023-05-19T05:20:18.664Z,12.05
2023-05-19T05:20:29.016Z,12.05
2023-05-19T05:20:34.427Z,12.06
2023-05-19T05:20:39.694Z,12.05
2023-05-19T05:20:44.906Z,12.08
2023-05-19T05:20:50.123Z,12.06
2023-05-19T05:21:21.017Z,12.08
2023-05-19T05:21:31.338Z,12.08
2023-05-19T05:21:36.558Z,12.08
2023-05-19T05:21:41.776Z,12.09
2023-05-19T05:21:46.931Z,12.11
2023-05-19T05:21:52.301Z,12.11
2023-05-19T05:22:23.260Z,12.19
2023-05-19T05:22:33.605Z,12.20
2023-05-19T05:22:38.827Z,12.21
2023-05-19T05:22:44.005Z,12.23
2023-05-19T05:22:49.195Z,12.20
2023-05-19T05:22:54.375Z,12.21
2023-05-19T05:23:25.318Z,12.23
2023-05-19T05:23:35.616Z,12.24
2023-05-19T05:23:40.820Z,12.24
2023-05-19T05:23:46.063Z,12.24
2023-05-19T05:23:51.248Z,12.26
2023-05-19T05:23:56.444Z,12.27
2023-05-19T05:24:27.343Z,12.29
2023-05-19T05:24:37.707Z,12.27
2023-05-19T05:24:42.885Z,12.29
2023-05-19T05:24:48.158Z,12.30
2023-05-19T05:24:53.345Z,12.29
2023-05-19T05:24:58.555Z,12.29
2023-05-19T05:25:29.435Z,12.24
2023-05-19T05:25:39.807Z,12.24
2023-05-19T05:25:45.001Z,12.24
2023-05-19T05:25:50.207Z,12.23
2023-05-19T05:25:55.435Z,12.24
2023-05-19T05:26:00.662Z,12.26
2023-05-19T05:26:31.590Z,12.31
2023-05-19T05:26:41.956Z,12.33
2023-05-19T05:26:47.137Z,12.37
2023-05-19T05:26:52.349Z,12.37
2023-05-19T05:26:57.533Z,12.39
2023-05-19T05:27:02.735Z,12.41
2023-05-19T05:27:33.642Z,12.52
2023-05-19T05:27:43.976Z,12.57
2023-05-19T05:27:49.179Z,12.59
2023-05-19T05:27:54.376Z,12.60
2023-05-19T05:27:59.573Z,12.63
2023-05-19T05:28:04.785Z,12.64
2023-05-19T05:28:35.722Z,12.75
2023-05-19T05:28:46.073Z,12.81
2023-05-19T05:28:51.260Z,12.84
2023-05-19T05:28:56.463Z,12.84
2023-05-19T05:29:01.681Z,12.88
2023-05-19T05:29:06.882Z,12.89
2023-05-19T05:29:37.805Z,13.07
2023-05-19T05:29:48.186Z,13.15
2023-05-19T05:29:53.380Z,13.17
2023-05-19T05:29:59.284Z,13.18
2023-05-19T05:30:04.548Z,13.20
2023-05-19T05:30:09.733Z,13.21
2023-05-19T05:30:40.612Z,13.32
2023-05-19T05:30:50.947Z,13.37
2023-05-19T05:30:56.157Z,13.40
2023-05-19T05:31:01.375Z,13.41
2023-05-19T05:31:06.591Z,13.44
2023-05-19T05:31:11.788Z,13.46
2023-05-19T05:31:42.687Z,13.61
2023-05-19T05:31:53.002Z,13.67
2023-05-19T05:31:58.267Z,13.69
2023-05-19T05:32:03.513Z,13.73
2023-05-19T05:32:08.780Z,13.71
2023-05-19T05:32:14.018Z,13.74
2023-05-19T05:32:44.974Z,13.91
2023-05-19T05:32:55.448Z,13.96
2023-05-19T05:33:00.751Z,13.99
2023-05-19T05:33:06.069Z,13.99
2023-05-19T05:33:11.393Z,14.02
2023-05-19T05:33:16.695Z,14.04
2023-05-19T05:33:47.777Z,14.09
2023-05-19T05:33:58.118Z,14.14
2023-05-19T05:34:03.310Z,14.14
2023-05-19T05:34:08.529Z,14.14
2023-05-19T05:34:13.736Z,14.14
2023-05-19T05:34:18.960Z,14.14
2023-05-19T05:34:49.836Z,14.21
2023-05-19T05:35:00.211Z,14.25
2023-05-19T05:35:05.409Z,14.24
2023-05-19T05:35:10.631Z,14.27
2023-05-19T05:35:15.837Z,14.28
2023-05-19T05:35:21.033Z,14.25
2023-05-19T05:35:51.918Z,14.37
2023-05-19T05:36:02.295Z,14.44
2023-05-19T05:36:07.498Z,14.47
2023-05-19T05:36:12.699Z,14.52
2023-05-19T05:36:17.917Z,14.54
2023-05-19T05:36:23.120Z,14.60
2023-05-19T05:36:53.954Z,14.72
2023-05-19T05:37:04.273Z,14.74
2023-05-19T05:37:09.467Z,14.74
2023-05-19T05:37:15.437Z,14.74
2023-05-19T05:37:20.669Z,14.74
2023-05-19T05:37:25.861Z,14.78
2023-05-19T05:37:56.809Z,14.74
2023-05-19T05:38:07.160Z,14.74
2023-05-19T05:38:12.386Z,14.75
2023-05-19T05:38:17.586Z,14.72
2023-05-19T05:38:22.808Z,14.72
2023-05-19T05:38:28.011Z,14.72
2023-05-19T05:38:58.840Z,14.62
2023-05-19T05:39:09.197Z,14.60
2023-05-19T05:39:14.408Z,14.56
2023-05-19T05:39:19.621Z,14.57
2023-05-19T05:39:24.824Z,14.54
2023-05-19T05:39:30.029Z,14.56
2023-05-19T05:40:00.958Z,14.53
2023-05-19T05:40:11.300Z,14.52
2023-05-19T05:40:16.500Z,14.50
2023-05-19T05:40:21.716Z,14.52
2023-05-19T05:40:26.937Z,14.53
2023-05-19T05:40:32.146Z,14.52
2023-05-19T05:41:02.996Z,14.21
2023-05-19T05:41:13.365Z,14.16
2023-05-19T05:41:18.574Z,14.14
2023-05-19T05:41:23.803Z,14.13
2023-05-19T05:41:29.017Z,14.12
2023-05-19T05:41:34.214Z,14.09
2023-05-19T05:42:05.206Z,13.94
2023-05-19T05:42:15.491Z,13.83
2023-05-19T05:42:20.685Z,13.83
2023-05-19T05:42:27.596Z,13.83
2023-05-19T05:42:34.097Z,13.80
2023-05-19T05:42:39.289Z,13.80
2023-05-19T05:43:10.190Z,13.76
2023-05-19T05:43:20.550Z,13.79
2023-05-19T05:43:25.752Z,13.81
2023-05-19T05:43:30.940Z,13.87
2023-05-19T05:43:36.116Z,13.89
2023-05-19T05:43:41.336Z,13.89
2023-05-19T05:44:12.204Z,14.02
2023-05-19T05:44:22.533Z,14.07
2023-05-19T05:44:27.717Z,14.10
2023-05-19T05:44:32.900Z,14.13
2023-05-19T05:44:38.093Z,14.16
2023-05-19T05:44:43.292Z,14.19
2023-05-19T05:45:14.205Z,14.35
2023-05-19T05:45:24.544Z,14.42
2023-05-19T05:45:29.848Z,14.42
2023-05-19T05:45:35.152Z,14.38
2023-05-19T05:45:40.387Z,14.38
2023-05-19T05:45:45.579Z,14.38
2023-05-19T05:46:16.534Z,14.46
2023-05-19T05:46:26.962Z,14.47
2023-05-19T05:46:32.372Z,14.52
2023-05-19T05:46:37.672Z,14.54
2023-05-19T05:46:42.875Z,14.56
2023-05-19T05:46:48.068Z,14.61
2023-05-19T05:47:18.966Z,14.83
2023-05-19T05:47:29.339Z,14.90
2023-05-19T05:47:34.533Z,14.94
2023-05-19T05:47:39.832Z,14.99
2023-05-19T05:47:45.032Z,14.99
2023-05-19T05:47:50.258Z,15.03
2023-05-19T05:48:21.229Z,15.15
2023-05-19T05:48:31.596Z,15.19
2023-05-19T05:48:36.819Z,15.24
2023-05-19T05:48:42.116Z,15.26
2023-05-19T05:48:47.305Z,15.28
2023-05-19T05:48:52.506Z,15.31
2023-05-19T05:49:23.378Z,15.46
2023-05-19T05:49:33.712Z,15.52
2023-05-19T05:49:38.903Z,15.54
2023-05-19T05:49:44.110Z,15.57
2023-05-19T05:49:49.924Z,15.60
2023-05-19T05:49:56.742Z,15.63
2023-05-19T05:50:27.645Z,15.78
2023-05-19T05:50:37.947Z,15.82
2023-05-19T05:50:43.151Z,15.81
2023-05-19T05:50:48.361Z,15.84
2023-05-19T05:50:53.579Z,15.85
2023-05-19T05:50:58.809Z,15.86
2023-05-19T05:51:29.725Z,15.97
2023-05-19T05:51:40.705Z,15.97
2023-05-19T05:52:01.516Z,16.00
2023-05-19T05:53:06.019Z,16.15
2023-05-19T05:53:11.222Z,16.18
2023-05-19T05:53:16.467Z,16.18
2023-05-19T05:53:21.694Z,16.23
2023-05-19T05:53:26.908Z,16.25
2023-05-19T05:53:32.107Z,16.26
2023-05-19T05:54:08.076Z,16.48
2023-05-19T05:54:13.287Z,16.52
2023-05-19T05:54:18.489Z,16.55
2023-05-19T05:54:23.695Z,16.56
2023-05-19T05:54:28.899Z,16.58
2023-05-19T05:54:34.123Z,16.58
2023-05-19T05:55:10.207Z,16.49
2023-05-19T05:55:15.407Z,16.45
2023-05-19T05:55:20.625Z,16.42
2023-05-19T05:55:25.846Z,16.38
2023-05-19T05:55:31.453Z,16.38
2023-05-19T05:55:36.841Z,16.40
2023-05-19T05:56:12.856Z,16.53
2023-05-19T05:56:18.073Z,16.58
2023-05-19T05:56:23.280Z,16.56
2023-05-19T05:56:28.494Z,16.59
2023-05-19T05:56:33.720Z,16.62
2023-05-19T05:56:38.928Z,16.63
2023-05-19T05:57:14.898Z,16.81
2023-05-19T05:57:20.093Z,16.86
2023-05-19T05:57:25.285Z,16.92
2023-05-19T05:57:30.499Z,16.92
2023-05-19T05:57:35.723Z,16.96
2023-05-19T05:57:40.941Z,17.00
2023-05-19T05:58:17.086Z,17.18
2023-05-19T05:58:22.296Z,17.22
2023-05-19T05:58:27.489Z,17.25
2023-05-19T05:58:32.697Z,17.26
2023-05-19T05:58:37.954Z,17.28
2023-05-19T05:58:43.159Z,17.32
2023-05-19T05:59:19.133Z,17.51
2023-05-19T05:59:24.341Z,17.54
2023-05-19T05:59:29.554Z,17.55
2023-05-19T05:59:34.785Z,17.59
2023-05-19T05:59:39.969Z,17.63
2023-05-19T05:59:45.182Z,17.63
2023-05-19T06:00:21.273Z,17.81
2023-05-19T06:00:26.471Z,17.84
2023-05-19T06:00:32.132Z,17.82
2023-05-19T06:00:37.575Z,17.84
2023-05-19T06:00:42.787Z,17.84
2023-05-19T06:00:47.986Z,17.79
2023-05-19T06:01:24.098Z,17.69
2023-05-19T06:01:29.321Z,17.57
2023-05-19T06:01:35.562Z,17.40
2023-05-19T06:01:40.887Z,17.15
2023-05-19T06:01:46.105Z,17.03
2023-05-19T06:01:51.295Z,16.86
2023-05-19T06:02:27.330Z,15.64
2023-05-19T06:02:32.660Z,15.52
2023-05-19T06:02:38.077Z,15.46
2023-05-19T06:02:43.422Z,15.41
2023-05-19T06:02:48.707Z,15.41
2023-05-19T06:02:54.140Z,15.42
2023-05-19T06:03:30.305Z,15.24
2023-05-19T06:03:35.504Z,15.23
2023-05-19T06:03:40.745Z,15.15
2023-05-19T06:03:46.005Z,15.06
2023-05-19T06:03:51.284Z,15.01
2023-05-19T06:03:56.476Z,14.98
2023-05-19T06:04:32.467Z,15.02
2023-05-19T06:04:37.724Z,15.03
2023-05-19T06:04:42.916Z,15.03
2023-05-19T06:04:48.115Z,15.01
2023-05-19T06:04:53.308Z,14.98
2023-05-19T06:04:58.560Z,14.95
2023-05-19T06:05:34.592Z,15.09
2023-05-19T06:05:39.813Z,15.06
2023-05-19T06:05:45.029Z,15.02
2023-05-19T06:05:50.249Z,15.01
2023-05-19T06:05:55.494Z,15.01
2023-05-19T06:06:00.912Z,14.94
2023-05-19T06:06:36.987Z,14.95
2023-05-19T06:06:42.198Z,15.01
2023-05-19T06:06:47.400Z,15.06
2023-05-19T06:06:52.598Z,15.11
2023-05-19T06:06:57.771Z,15.19
2023-05-19T06:07:02.981Z,15.23
2023-05-19T06:07:38.934Z,15.48
2023-05-19T06:07:44.136Z,15.51
2023-05-19T06:07:49.339Z,15.52
2023-05-19T06:07:54.512Z,15.57
2023-05-19T06:07:59.728Z,15.63
2023-05-19T06:08:04.936Z,15.68
2023-05-19T06:08:41.049Z,16.16
2023-05-19T06:08:46.247Z,16.26
2023-05-19T06:08:51.436Z,16.34
2023-05-19T06:08:56.642Z,16.40
2023-05-19T06:09:01.828Z,16.48
2023-05-19T06:09:07.004Z,16.52
2023-05-19T06:09:43.022Z,16.62
2023-05-19T06:09:48.213Z,16.60
2023-05-19T06:09:53.413Z,16.63
2023-05-19T06:09:58.622Z,16.67
2023-05-19T06:10:03.833Z,16.68
2023-05-19T06:10:09.050Z,16.73
2023-05-19T06:10:47.220Z,17.00
2023-05-19T06:10:52.696Z,17.06
2023-05-19T06:10:57.897Z,17.11
2023-05-19T06:11:03.106Z,17.18
2023-05-19T06:11:08.299Z,17.22
2023-05-19T06:11:13.490Z,17.28
2023-05-19T06:11:49.583Z,17.48
2023-05-19T06:11:54.760Z,17.48
2023-05-19T06:11:59.955Z,17.47
2023-05-19T06:12:05.178Z,17.50
2023-05-19T06:12:10.363Z,17.53
2023-05-19T06:12:15.551Z,17.55
2023-05-19T06:12:51.618Z,17.73
2023-05-19T06:12:56.838Z,17.78
2023-05-19T06:13:02.061Z,17.79
2023-05-19T06:13:07.270Z,17.79
2023-05-19T06:13:12.453Z,17.81
2023-05-19T06:13:17.671Z,17.79
2023-05-19T06:13:53.748Z,17.69
2023-05-19T06:13:58.921Z,17.69
2023-05-19T06:14:04.122Z,17.67
2023-05-19T06:14:09.342Z,17.64
2023-05-19T06:14:14.525Z,17.64
2023-05-19T06:14:19.732Z,17.63
2023-05-19T06:14:55.740Z,17.26
2023-05-19T06:15:00.919Z,17.20